Back to Top

Language: 

My Weather Underground Personal Weather Station Historical Data with Graphs...

Delerius Weather Station Historical Data
Daily Summary for June 3, 2017 Units:  Metric    English   Both
« Previous Day
Next Day »
Daily Weekly Monthly Yearly Custom
  High: Low: Average:
Temperature: 20.8 °C 11.2 °C 15.9 °C
Dew Point: 12.6 °C 7 °C 9.9 °C
Humidity: 95 % 43 % 70 %
Wind Speed: 24.1 km/h 0 km/h 8.4 km/h
Wind Gust: 38.6 km/h - -
Wind:- - WNW
Pressure: 1013.8 hPa 1011.1 hPa -
Precipitation: 0.51 mm    
Historical Graphs
 
 
Tabular Data for June 3, 2017
Time Temperature Dew Point Pressure Wind Wind Speed Wind Gust Humidity Rainfall Rate (Hourly) solar Conditions
00:00 13.5 °C 12.6 °C 1013.8 hPa NW 3.2 km/h 9.7 km/h 94 % 0 mm 0 W/m2
00:05 13.5 °C 12.4 °C 1013.8 hPa NW 3.2 km/h 9.7 km/h 93 % 0 mm 0 W/m2
00:10 13.5 °C 12.4 °C 1013.8 hPa NW 1.6 km/h 8 km/h 93 % 0 mm 0 W/m2
00:11 13.5 °C 12.4 °C 1013.8 hPa NW 1.6 km/h 6.4 km/h 93 % 0 mm 0 W/m2
00:16 13.5 °C 12.4 °C 1013.4 hPa NW 1.6 km/h 9.7 km/h 93 % 0 mm 0 W/m2
00:21 13.5 °C 12.4 °C 1013.8 hPa NW 3.2 km/h 9.7 km/h 93 % 0 mm 0 W/m2
00:26 13.5 °C 12.4 °C 1013.8 hPa NW 3.2 km/h 8 km/h 93 % 0 mm 0 W/m2
00:31 13.5 °C 12.6 °C 1013.8 hPa NW 1.6 km/h 8 km/h 94 % 0 mm 0 W/m2
00:34 13.5 °C 12.4 °C 1013.8 hPa NW 1.6 km/h 8 km/h 93 % 0 mm 0 W/m2
00:39 13.5 °C 12.4 °C 1013.8 hPa NW 3.2 km/h 8 km/h 93 % 0 mm 0 W/m2
00:44 13.4 °C 12.3 °C 1013.8 hPa NW 1.6 km/h 8 km/h 93 % 0 mm 0 W/m2
00:49 13.5 °C 12.4 °C 1013.8 hPa NW 1.6 km/h 8 km/h 93 % 0 mm 0 W/m2
00:54 13.5 °C 12.4 °C 1013.4 hPa NW 1.6 km/h 6.4 km/h 93 % 0 mm 0 W/m2
00:59 13.5 °C 12.4 °C 1013.4 hPa NW 1.6 km/h 9.7 km/h 93 % 0 mm 0 W/m2
01:04 13.5 °C 12.4 °C 1013.4 hPa NW 3.2 km/h 9.7 km/h 93 % 0 mm 0 W/m2
01:08 13.5 °C 12.4 °C 1013.4 hPa NW 3.2 km/h 8 km/h 93 % 0 mm 0 W/m2
01:13 13.4 °C 12.3 °C 1013.4 hPa NW 3.2 km/h 8 km/h 93 % 0 mm 0 W/m2
01:18 13.4 °C 12.3 °C 1013.4 hPa NW 3.2 km/h 8 km/h 93 % 0.25 mm 0 W/m2
01:23 13.5 °C 12.6 °C 1013.8 hPa NW 1.6 km/h 8 km/h 94 % 0.25 mm 0 W/m2
01:28 13.5 °C 12.6 °C 1013.4 hPa NW 1.6 km/h 8 km/h 94 % 0.25 mm 0 W/m2
01:33 13.5 °C 12.6 °C 1013.4 hPa NW 1.6 km/h 3.2 km/h 94 % 0.25 mm 0 W/m2
01:38 13.5 °C 12.6 °C 1013.4 hPa NW 1.6 km/h 8 km/h 94 % 0.25 mm 0 W/m2
01:43 13.4 °C 12.4 °C 1013.4 hPa Calm   8 km/h 94 % 0.25 mm 0 W/m2
01:48 13.4 °C 12.4 °C 1013.4 hPa Calm     94 % 0.25 mm 0 W/m2
01:53 13.4 °C 12.4 °C 1013.4 hPa Calm   6.4 km/h 94 % 0.51 mm 0 W/m2
01:58 13.3 °C 12.3 °C 1013.4 hPa NW 1.6 km/h 6.4 km/h 94 % 0.51 mm 0 W/m2
02:03 13.3 °C 12.3 °C 1013.1 hPa Calm   6.4 km/h 94 % 0.51 mm 0 W/m2
02:09 13.3 °C 12.3 °C 1013.1 hPa Calm   3.2 km/h 94 % 0.51 mm 0 W/m2
02:14 13.2 °C 12.3 °C 1013.1 hPa Calm     94 % 0.51 mm 0 W/m2
02:19 13.2 °C 12.3 °C 1013.1 hPa Calm     94 % 0.25 mm 0 W/m2
02:24 13.2 °C 12.3 °C 1013.1 hPa Calm     94 % 0.25 mm 0 W/m2
02:29 13.1 °C 12.2 °C 1013.1 hPa Calm     94 % 0.25 mm 0 W/m2
02:34 13.1 °C 12.2 °C 1013.1 hPa Calm     94 % 0.25 mm 0 W/m2
02:39 13.1 °C 12.2 °C 1013.1 hPa Calm     94 % 0.25 mm 0 W/m2
02:44 13.1 °C 12.2 °C 1012.8 hPa Calm     94 % 0.25 mm 0 W/m2
02:49 13.1 °C 12.3 °C 1012.8 hPa Calm   4.8 km/h 95 % 0.25 mm 0 W/m2
02:54 13.1 °C 12.3 °C 1012.8 hPa Calm   6.4 km/h 95 % 0 mm 0 W/m2
02:59 13 °C 12.2 °C 1012.8 hPa NW 1.6 km/h 6.4 km/h 95 % 0 mm 0 W/m2
03:04 13 °C 12.2 °C 1012.8 hPa NW 1.6 km/h 6.4 km/h 95 % 0 mm 0 W/m2
03:09 12.9 °C 12.1 °C 1012.8 hPa NW 1.6 km/h 6.4 km/h 95 % 0 mm 0 W/m2
03:14 12.8 °C 12 °C 1012.8 hPa NW 1.6 km/h 8 km/h 95 % 0 mm 0 W/m2
03:19 12.8 °C 12 °C 1012.8 hPa NW 3.2 km/h 8 km/h 95 % 0 mm 0 W/m2
03:24 12.7 °C 11.8 °C 1012.8 hPa NW 4.8 km/h 8 km/h 94 % 0 mm 0 W/m2
03:25 12.7 °C 11.8 °C 1012.8 hPa NW 4.8 km/h 8 km/h 94 % 0 mm 0 W/m2
03:30 12.6 °C 11.7 °C 1012.8 hPa NW 4.8 km/h 8 km/h 94 % 0 mm 0 W/m2
03:35 12.7 °C 11.9 °C 1012.8 hPa NW 3.2 km/h 9.7 km/h 95 % 0 mm 0 W/m2
03:40 12.6 °C 11.8 °C 1012.8 hPa NW 4.8 km/h 9.7 km/h 95 % 0 mm 0 W/m2
03:45 12.6 °C 11.8 °C 1012.8 hPa NW 4.8 km/h 9.7 km/h 95 % 0 mm 0 W/m2
03:46 12.6 °C 11.8 °C 1012.8 hPa NW 4.8 km/h 9.7 km/h 95 % 0 mm 0 W/m2
03:51 12.6 °C 11.8 °C 1012.8 hPa NW 4.8 km/h 8 km/h 95 % 0 mm 0 W/m2
03:56 12.5 °C 11.7 °C 1012.8 hPa NW 3.2 km/h 8 km/h 95 % 0 mm 0 W/m2
04:01 12.4 °C 11.6 °C 1012.8 hPa NW 3.2 km/h 11.3 km/h 95 % 0 mm 0 W/m2
04:06 12.3 °C 11.4 °C 1012.8 hPa NW 4.8 km/h 11.3 km/h 94 % 0 mm 0 W/m2
04:11 12.1 °C 11.2 °C 1012.8 hPa NW 4.8 km/h 11.3 km/h 94 % 0 mm 0 W/m2
04:12 12.1 °C 11.2 °C 1012.8 hPa NW 4.8 km/h 11.3 km/h 94 % 0 mm 0 W/m2
04:17 11.9 °C 10.9 °C 1012.8 hPa NW 4.8 km/h 9.7 km/h 94 % 0 mm 0 W/m2
04:23 11.9 °C 10.8 °C 1012.4 hPa WNW 4.8 km/h 12.9 km/h 93 % 0 mm 0 W/m2
04:28 11.8 °C 10.7 °C 1012.4 hPa NW 4.8 km/h 12.9 km/h 93 % 0 mm 0 W/m2
04:33 11.8 °C 10.7 °C 1012.4 hPa NW 4.8 km/h 9.7 km/h 93 % 0 mm 0 W/m2
04:38 11.8 °C 10.7 °C 1012.4 hPa NW 4.8 km/h 9.7 km/h 93 % 0 mm 0 W/m2
04:42 11.8 °C 10.7 °C 1012.4 hPa NW 4.8 km/h 9.7 km/h 93 % 0 mm 0 W/m2
04:48 11.7 °C 10.6 °C 1012.8 hPa NW 4.8 km/h 9.7 km/h 93 % 0 mm 0 W/m2
04:53 11.7 °C 10.4 °C 1012.8 hPa NW 6.4 km/h 12.9 km/h 92 % 0 mm 5 W/m2
04:58 11.6 °C 10.3 °C 1012.8 hPa NW 8 km/h 16.1 km/h 92 % 0 mm 5 W/m2
05:03 11.6 °C 10.3 °C 1012.8 hPa WNW 9.7 km/h 16.1 km/h 92 % 0 mm 7 W/m2
05:08 11.6 °C 10.3 °C 1012.8 hPa WNW 9.7 km/h 14.5 km/h 92 % 0 mm 9 W/m2
05:13 11.6 °C 10.3 °C 1012.8 hPa WNW 8 km/h 14.5 km/h 92 % 0 mm 12 W/m2
05:18 11.6 °C 10.3 °C 1012.8 hPa NW 6.4 km/h 12.9 km/h 92 % 0 mm 16 W/m2
05:23 11.5 °C 10.2 °C 1012.8 hPa WNW 6.4 km/h 12.9 km/h 92 % 0 mm 18 W/m2
05:28 11.4 °C 10 °C 1012.8 hPa WNW 8 km/h 14.5 km/h 91 % 0 mm 19 W/m2
05:33 11.3 °C 9.9 °C 1012.8 hPa NW 8 km/h 14.5 km/h 91 % 0 mm 18 W/m2
05:38 11.3 °C 9.9 °C 1012.8 hPa NW 4.8 km/h 12.9 km/h 91 % 0 mm 23 W/m2
05:43 11.2 °C 9.8 °C 1012.8 hPa WNW 3.2 km/h 9.7 km/h 91 % 0 mm 37 W/m2
05:48 11.2 °C 9.9 °C 1012.8 hPa WNW 1.6 km/h 8 km/h 92 % 0 mm 47 W/m2
05:53 11.3 °C 10.1 °C 1012.8 hPa WNW 3.2 km/h 9.7 km/h 92 % 0 mm 39 W/m2
05:58 11.3 °C 10.1 °C 1012.8 hPa WNW 3.2 km/h 9.7 km/h 92 % 0 mm 49 W/m2
06:03 11.3 °C 10.1 °C 1012.8 hPa WNW 6.4 km/h 14.5 km/h 92 % 0 mm 47 W/m2
06:08 11.3 °C 10.1 °C 1012.8 hPa WNW 8 km/h 14.5 km/h 92 % 0 mm 39 W/m2
06:13 11.4 °C 10.2 °C 1012.8 hPa WNW 6.4 km/h 12.9 km/h 92 % 0 mm 40 W/m2
06:18 11.4 °C 10.2 °C 1012.8 hPa WNW 6.4 km/h 12.9 km/h 92 % 0 mm 28 W/m2
06:23 11.4 °C 10 °C 1012.8 hPa NW 6.4 km/h 11.3 km/h 91 % 0 mm 28 W/m2
06:28 11.3 °C 9.9 °C 1012.8 hPa WNW 4.8 km/h 9.7 km/h 91 % 0 mm 44 W/m2
06:33 11.3 °C 9.9 °C 1012.8 hPa WNW 4.8 km/h 9.7 km/h 91 % 0 mm 44 W/m2
06:38 11.3 °C 9.9 °C 1013.1 hPa WNW 4.8 km/h 11.3 km/h 91 % 0 mm 54 W/m2
06:43 11.3 °C 9.7 °C 1012.8 hPa WNW 6.4 km/h 11.3 km/h 90 % 0 mm 53 W/m2
06:48 11.3 °C 9.7 °C 1013.1 hPa WNW 6.4 km/h 11.3 km/h 90 % 0 mm 47 W/m2
06:53 11.3 °C 9.7 °C 1013.1 hPa WNW 6.4 km/h 11.3 km/h 90 % 0 mm 49 W/m2
06:58 11.4 °C 9.8 °C 1013.1 hPa WNW 6.4 km/h 11.3 km/h 90 % 0 mm 44 W/m2
07:03 11.5 °C 9.9 °C 1013.1 hPa WNW 4.8 km/h 8 km/h 90 % 0 mm 47 W/m2
07:08 11.6 °C 10 °C 1013.1 hPa WNW 3.2 km/h 9.7 km/h 90 % 0 mm 47 W/m2
07:13 11.8 °C 10.4 °C 1012.8 hPa WNW 3.2 km/h 9.7 km/h 91 % 0 mm 146 W/m2
07:18 12 °C 10.4 °C 1012.8 hPa WNW 4.8 km/h 9.7 km/h 90 % 0 mm 302 W/m2
07:23 12.3 °C 10.6 °C 1012.8 hPa WNW 6.4 km/h 11.3 km/h 89 % 0 mm 315 W/m2
07:28 12.8 °C 11.1 °C 1012.8 hPa WNW 6.4 km/h 11.3 km/h 89 % 0 mm 330 W/m2
07:33 13.3 °C 11.2 °C 1012.8 hPa WNW 6.4 km/h 11.3 km/h 87 % 0 mm 343 W/m2
07:39 13.7 °C 11.1 °C 1012.8 hPa NW 6.4 km/h 12.9 km/h 84 % 0 mm 258 W/m2
07:44 14.1 °C 10.7 °C 1013.1 hPa WNW 8 km/h 17.7 km/h 80 % 0 mm 360 W/m2
07:49 14.3 °C 10.9 °C 1013.1 hPa WNW 8 km/h 17.7 km/h 80 % 0 mm 387 W/m2
07:54 14.5 °C 10.7 °C 1013.1 hPa WNW 6.4 km/h 12.9 km/h 78 % 0 mm 160 W/m2
07:59 14.5 °C 10.7 °C 1013.1 hPa WNW 6.4 km/h 12.9 km/h 78 % 0 mm 141 W/m2
08:04 14.4 °C 10.2 °C 1013.1 hPa WNW 4.8 km/h 12.9 km/h 76 % 0 mm 116 W/m2
08:09 14.4 °C 10.4 °C 1013.1 hPa NW 6.4 km/h 11.3 km/h 77 % 0 mm 237 W/m2
08:10 14.4 °C 10.4 °C 1013.1 hPa NW 6.4 km/h 11.3 km/h 77 % 0 mm 278 W/m2
08:15 14.7 °C 10.9 °C 1013.1 hPa NW 6.4 km/h 11.3 km/h 78 % 0 mm 443 W/m2
08:20 15 °C 11 °C 1013.1 hPa WNW 8 km/h 19.3 km/h 77 % 0 mm 461 W/m2
08:25 15.3 °C 10.7 °C 1013.1 hPa WNW 11.3 km/h 19.3 km/h 74 % 0 mm 469 W/m2
08:30 15.6 °C 11 °C 1013.1 hPa WNW 11.3 km/h 17.7 km/h 74 % 0 mm 490 W/m2
08:35 15.8 °C 10.9 °C 1013.1 hPa WNW 11.3 km/h 19.3 km/h 73 % 0 mm 506 W/m2
08:40 15.9 °C 10.8 °C 1013.1 hPa West 12.9 km/h 24.1 km/h 72 % 0 mm 515 W/m2
08:45 16.2 °C 11.2 °C 1013.1 hPa WNW 11.3 km/h 24.1 km/h 72 % 0 mm 527 W/m2
08:50 16.3 °C 11.4 °C 1013.1 hPa West 11.3 km/h 19.3 km/h 73 % 0 mm 485 W/m2
08:55 16.3 °C 11.2 °C 1013.1 hPa West 12.9 km/h 22.5 km/h 72 % 0 mm 557 W/m2
09:00 16.2 °C 11.2 °C 1013.1 hPa West 14.5 km/h 22.5 km/h 72 % 0 mm 568 W/m2
09:05 16.2 °C 11.3 °C 1013.1 hPa West 12.9 km/h 22.5 km/h 73 % 0 mm 584 W/m2
09:10 16.4 °C 11.3 °C 1013.1 hPa West 12.9 km/h 20.9 km/h 72 % 0 mm 603 W/m2
09:15 16.6 °C 11.7 °C 1013.1 hPa West 11.3 km/h 19.3 km/h 73 % 0 mm 608 W/m2
09:20 16.7 °C 11.4 °C 1013.1 hPa West 12.9 km/h 22.5 km/h 71 % 0 mm 615 W/m2
09:25 16.8 °C 11.5 °C 1013.1 hPa West 12.9 km/h 22.5 km/h 71 % 0 mm 638 W/m2
09:30 16.8 °C 11.5 °C 1013.1 hPa West 12.9 km/h 24.1 km/h 71 % 0 mm 664 W/m2
09:35 17.1 °C 11.6 °C 1012.8 hPa West 12.9 km/h 24.1 km/h 70 % 0 mm 729 W/m2
09:40 17.3 °C 11.3 °C 1012.8 hPa West 12.9 km/h 24.1 km/h 68 % 0 mm 759 W/m2
09:45 17.6 °C 11.4 °C 1012.8 hPa WNW 12.9 km/h 20.9 km/h 67 % 0 mm 722 W/m2
09:50 17.8 °C 11.3 °C 1012.8 hPa NW 11.3 km/h 20.9 km/h 66 % 0 mm 745 W/m2
09:55 17.9 °C 11 °C 1012.8 hPa NW 11.3 km/h 22.5 km/h 64 % 0 mm 668 W/m2
10:00 17.8 °C 10.9 °C 1012.8 hPa WNW 12.9 km/h 22.5 km/h 64 % 0 mm 758 W/m2
10:05 17.9 °C 10.8 °C 1012.8 hPa WNW 14.5 km/h 25.7 km/h 63 % 0 mm 759 W/m2
10:10 17.9 °C 9.8 °C 1012.8 hPa West 14.5 km/h 29 km/h 59 % 0 mm 747 W/m2
10:11 18 °C 10.4 °C 1012.8 hPa West 14.5 km/h 29 km/h 61 % 0 mm 860 W/m2
10:16 18 °C 9.9 °C 1012.8 hPa West 14.5 km/h 24.1 km/h 59 % 0 mm 772 W/m2
10:21 18.2 °C 9.8 °C 1012.8 hPa West 14.5 km/h 22.5 km/h 58 % 0 mm 824 W/m2
10:26 18.3 °C 9.4 °C 1012.8 hPa West 14.5 km/h 22.5 km/h 56 % 0 mm 761 W/m2
10:31 18.3 °C 9.1 °C 1012.8 hPa WSW 14.5 km/h 22.5 km/h 55 % 0 mm 209 W/m2
10:36 18.2 °C 9 °C 1012.8 hPa WSW 12.9 km/h 20.9 km/h 55 % 0 mm 236 W/m2
10:42 18.2 °C 9 °C 1012.4 hPa West 12.9 km/h 20.9 km/h 55 % 0 mm 366 W/m2
10:47 18.1 °C 8.7 °C 1012.4 hPa West 12.9 km/h 22.5 km/h 54 % 0 mm 861 W/m2
10:52 18.3 °C 9.1 °C 1012.4 hPa WSW 12.9 km/h 22.5 km/h 55 % 0 mm 905 W/m2
10:57 18.5 °C 9 °C 1012.4 hPa West 12.9 km/h 19.3 km/h 54 % 0 mm 865 W/m2
11:02 18.4 °C 9.4 °C 1012.4 hPa WSW 12.9 km/h 20.9 km/h 56 % 0 mm 856 W/m2
11:07 18.8 °C 9.6 °C 1012.4 hPa West 12.9 km/h 20.9 km/h 55 % 0 mm 895 W/m2
11:12 19.1 °C 9 °C 1012.4 hPa West 11.3 km/h 20.9 km/h 52 % 0 mm 749 W/m2
11:17 19 °C 8.1 °C 1012.4 hPa WSW 11.3 km/h 20.9 km/h 49 % 0 mm 881 W/m2
11:22 18.9 °C 8.6 °C 1012.4 hPa WSW 14.5 km/h 20.9 km/h 51 % 0 mm 877 W/m2
11:27 18.8 °C 9 °C 1012.4 hPa WSW 12.9 km/h 20.9 km/h 53 % 0 mm 935 W/m2
11:32 19.2 °C 9.4 °C 1012.4 hPa West 12.9 km/h 24.1 km/h 53 % 0 mm 918 W/m2
11:37 19.4 °C 9 °C 1012.4 hPa West 12.9 km/h 24.1 km/h 51 % 0 mm 197 W/m2
11:42 19.3 °C 8.6 °C 1012.4 hPa WSW 12.9 km/h 19.3 km/h 50 % 0 mm 877 W/m2
11:48 19.3 °C 9.8 °C 1012.4 hPa WSW 12.9 km/h 25.7 km/h 54 % 0 mm 940 W/m2
11:53 19.4 °C 9.3 °C 1012.4 hPa West 14.5 km/h 25.7 km/h 52 % 0 mm 183 W/m2
11:58 19.4 °C 9.3 °C 1012.4 hPa WNW 14.5 km/h 24.1 km/h 52 % 0 mm 960 W/m2
12:03 19.4 °C 8.7 °C 1012.4 hPa WNW 11.3 km/h 22.5 km/h 50 % 0 mm 937 W/m2
12:08 19.7 °C 9.3 °C 1012.4 hPa WNW 11.3 km/h 22.5 km/h 51 % 0 mm 984 W/m2
12:13 19.9 °C 9.4 °C 1012.4 hPa WNW 12.9 km/h 30.6 km/h 51 % 0 mm 262 W/m2
12:18 19.7 °C 9.6 °C 1012.4 hPa West 11.3 km/h 30.6 km/h 52 % 0 mm 953 W/m2
12:23 19.8 °C 9.1 °C 1012.4 hPa WNW 9.7 km/h 22.5 km/h 50 % 0 mm 272 W/m2
12:28 19.7 °C 9 °C 1012.4 hPa WNW 11.3 km/h 22.5 km/h 50 % 0 mm 872 W/m2
12:33 19.8 °C 8.2 °C 1012.4 hPa West 11.3 km/h 20.9 km/h 47 % 0 mm 914 W/m2
12:38 20.1 °C 8.1 °C 1012.1 hPa West 11.3 km/h 20.9 km/h 46 % 0 mm 979 W/m2
12:43 20.3 °C 9.6 °C 1012.1 hPa West 11.3 km/h 24.1 km/h 50 % 0 mm 844 W/m2
12:48 20.4 °C 8.4 °C 1012.1 hPa WNW 12.9 km/h 24.1 km/h 46 % 0 mm 840 W/m2
12:53 20.4 °C 8.4 °C 1012.1 hPa WNW 12.9 km/h 20.9 km/h 46 % 0 mm 874 W/m2
12:58 20.3 °C 8.3 °C 1012.1 hPa WNW 12.9 km/h 22.5 km/h 46 % 0 mm 898 W/m2
13:03 20.4 °C 9.6 °C 1012.1 hPa WNW 12.9 km/h 22.5 km/h 50 % 0 mm 842 W/m2
13:08 20.6 °C 9.2 °C 1011.7 hPa WNW 12.9 km/h 20.9 km/h 48 % 0 mm 751 W/m2
13:13 20.5 °C 8.8 °C 1012.1 hPa West 14.5 km/h 20.9 km/h 47 % 0 mm 701 W/m2
13:18 20.5 °C 7.5 °C 1012.1 hPa West 14.5 km/h 22.5 km/h 43 % 0 mm 747 W/m2
13:23 20.6 °C 8.2 °C 1011.7 hPa West 12.9 km/h 22.5 km/h 45 % 0 mm 821 W/m2
13:28 20.5 °C 8.5 °C 1011.7 hPa West 12.9 km/h 22.5 km/h 46 % 0 mm 765 W/m2
13:33 20.6 °C 8.9 °C 1011.7 hPa West 12.9 km/h 20.9 km/h 47 % 0 mm 740 W/m2
13:38 20.4 °C 8.1 °C 1011.7 hPa West 12.9 km/h 24.1 km/h 45 % 0 mm 696 W/m2
13:43 20.4 °C 7.7 °C 1011.7 hPa West 14.5 km/h 24.1 km/h 44 % 0 mm 443 W/m2
13:48 20 °C 7.7 °C 1011.7 hPa West 12.9 km/h 20.9 km/h 45 % 0 mm 687 W/m2
13:53 19.8 °C 7.5 °C 1011.7 hPa WSW 11.3 km/h 22.5 km/h 45 % 0 mm 636 W/m2
13:58 19.6 °C 7 °C 1011.7 hPa WSW 12.9 km/h 22.5 km/h 44 % 0 mm 524 W/m2
14:03 19.6 °C 8 °C 1011.7 hPa WSW 12.9 km/h 22.5 km/h 47 % 0 mm 668 W/m2
14:08 19.9 °C 7.6 °C 1011.7 hPa West 9.7 km/h 17.7 km/h 45 % 0 mm 649 W/m2
14:14 20.1 °C 7.8 °C 1011.7 hPa West 9.7 km/h 17.7 km/h 45 % 0 mm 805 W/m2
14:19 20.3 °C 8.3 °C 1011.7 hPa West 8 km/h 14.5 km/h 46 % 0 mm 450 W/m2
14:24 20.5 °C 8.8 °C 1011.7 hPa WNW 8 km/h 17.7 km/h 47 % 0 mm 642 W/m2
14:29 20.4 °C 8.4 °C 1011.7 hPa West 9.7 km/h 17.7 km/h 46 % 0 mm 589 W/m2
14:34 20.2 °C 8.5 °C 1011.7 hPa WSW 11.3 km/h 20.9 km/h 47 % 0 mm 406 W/m2
14:39 20 °C 8.9 °C 1011.7 hPa West 14.5 km/h 24.1 km/h 49 % 0 mm 461 W/m2
14:44 19.8 °C 9.1 °C 1011.7 hPa West 14.5 km/h 24.1 km/h 50 % 0 mm 396 W/m2
14:49 19.8 °C 9.4 °C 1011.7 hPa West 16.1 km/h 24.1 km/h 51 % 0 mm 454 W/m2
14:54 19.7 °C 9.6 °C 1011.7 hPa West 14.5 km/h 24.1 km/h 52 % 0 mm 694 W/m2
14:59 19.7 °C 9.3 °C 1011.7 hPa West 14.5 km/h 24.1 km/h 51 % 0 mm 278 W/m2
15:04 19.3 °C 9.2 °C 1011.7 hPa West 17.7 km/h 24.1 km/h 52 % 0 mm 313 W/m2
15:09 19.2 °C 9.4 °C 1011.7 hPa West 16.1 km/h 24.1 km/h 53 % 0 mm 424 W/m2
15:11 19.1 °C 9.3 °C 1011.7 hPa West 14.5 km/h 24.1 km/h 53 % 0 mm 424 W/m2
15:16 19.3 °C 8.9 °C 1011.7 hPa West 12.9 km/h 25.7 km/h 51 % 0 mm 448 W/m2
15:21 19.6 °C 9.8 °C 1011.7 hPa West 11.3 km/h 25.7 km/h 53 % 0 mm 392 W/m2
15:26 20 °C 9.6 °C 1011.7 hPa West 9.7 km/h 16.1 km/h 51 % 0 mm 1049 W/m2
15:31 20.2 °C 9.4 °C 1011.7 hPa West 11.3 km/h 19.3 km/h 50 % 0 mm 617 W/m2
15:36 20.2 °C 9.2 °C 1011.7 hPa West 12.9 km/h 20.9 km/h 49 % 0 mm 287 W/m2
15:41 20.1 °C 9.3 °C 1011.4 hPa West 14.5 km/h 25.7 km/h 50 % 0 mm 853 W/m2
15:46 20 °C 9.3 °C 1011.4 hPa West 14.5 km/h 25.7 km/h 50 % 0 mm 264 W/m2
15:51 20.1 °C 9.7 °C 1011.4 hPa WNW 14.5 km/h 22.5 km/h 51 % 0 mm 817 W/m2
15:56 20.4 °C 9.3 °C 1011.4 hPa WNW 12.9 km/h 22.5 km/h 49 % 0 mm 858 W/m2
16:01 20.8 °C 8.1 °C 1011.4 hPa West 14.5 km/h 25.7 km/h 44 % 0 mm 884 W/m2
16:06 20.8 °C 8.1 °C 1011.1 hPa West 12.9 km/h 25.7 km/h 44 % 0 mm 278 W/m2
16:11 20.6 °C 8.9 °C 1011.4 hPa West 12.9 km/h 24.1 km/h 47 % 0 mm 288 W/m2
16:16 20.2 °C 9.2 °C 1011.4 hPa WNW 14.5 km/h 24.1 km/h 49 % 0 mm 265 W/m2
16:21 20 °C 8.7 °C 1011.4 hPa WNW 12.9 km/h 22.5 km/h 48 % 0 mm 311 W/m2
16:22 20 °C 8.9 °C 1011.4 hPa WNW 12.9 km/h 22.5 km/h 49 % 0 mm 287 W/m2
16:27 19.9 °C 9.2 °C 1011.1 hPa West 12.9 km/h 22.5 km/h 50 % 0 mm 301 W/m2
16:32 19.9 °C 8.6 °C 1011.1 hPa West 12.9 km/h 22.5 km/h 48 % 0 mm 195 W/m2
16:37 19.8 °C 8.4 °C 1011.1 hPa West 12.9 km/h 22.5 km/h 48 % 0 mm 213 W/m2
16:42 19.7 °C 8.1 °C 1011.1 hPa West 11.3 km/h 19.3 km/h 47 % 0 mm 272 W/m2
16:47 19.6 °C 8.6 °C 1011.4 hPa WSW 11.3 km/h 20.9 km/h 49 % 0 mm 207 W/m2
16:52 19.5 °C 8.5 °C 1011.1 hPa WSW 11.3 km/h 20.9 km/h 49 % 0 mm 246 W/m2
16:57 19.6 °C 8 °C 1011.1 hPa WSW 11.3 km/h 30.6 km/h 47 % 0 mm 309 W/m2
17:02 19.6 °C 7.7 °C 1011.4 hPa West 16.1 km/h 32.2 km/h 46 % 0 mm 336 W/m2
17:07 19.8 °C 7.8 °C 1011.4 hPa West 19.3 km/h 33.8 km/h 46 % 0 mm 779 W/m2
17:12 20.1 °C 8.1 °C 1011.4 hPa West 17.7 km/h 33.8 km/h 46 % 0 mm 708 W/m2
17:17 19.9 °C 7.6 °C 1011.1 hPa WSW 17.7 km/h 35.4 km/h 45 % 0 mm 429 W/m2
17:22 19.7 °C 9 °C 1011.4 hPa West 19.3 km/h 35.4 km/h 50 % 0 mm 647 W/m2
17:27 19.4 °C 8.7 °C 1011.4 hPa West 20.9 km/h 35.4 km/h 50 % 0 mm 211 W/m2
17:32 18.7 °C 8.9 °C 1011.4 hPa West 20.9 km/h 38.6 km/h 53 % 0 mm 246 W/m2
17:37 18.1 °C 8.9 °C 1011.4 hPa West 22.5 km/h 38.6 km/h 55 % 0 mm 302 W/m2
17:42 17.9 °C 8.7 °C 1011.4 hPa West 24.1 km/h 38.6 km/h 55 % 0 mm 227 W/m2
17:47 17.9 °C 9 °C 1011.4 hPa West 22.5 km/h 38.6 km/h 56 % 0 mm 236 W/m2
17:52 17.7 °C 9.1 °C 1011.7 hPa West 20.9 km/h 35.4 km/h 57 % 0 mm 234 W/m2
17:57 17.8 °C 9.4 °C 1011.4 hPa West 19.3 km/h 33.8 km/h 58 % 0 mm 577 W/m2
17:58 17.8 °C 9.2 °C 1011.4 hPa West 17.7 km/h 30.6 km/h 57 % 0 mm 359 W/m2
18:03 18 °C 9.6 °C 1011.4 hPa West 17.7 km/h 32.2 km/h 58 % 0 mm 469 W/m2
18:08 18.2 °C 9.8 °C 1011.4 hPa West 14.5 km/h 32.2 km/h 58 % 0 mm 461 W/m2
18:13 18.4 °C 9.7 °C 1011.4 hPa West 12.9 km/h 25.7 km/h 57 % 0 mm 431 W/m2
18:18 18.5 °C 9.8 °C 1011.4 hPa West 11.3 km/h 25.7 km/h 57 % 0 mm 415 W/m2
18:23 18.4 °C 9.2 °C 1011.4 hPa West 11.3 km/h 29 km/h 55 % 0 mm 418 W/m2
18:28 18.4 °C 9.7 °C 1011.4 hPa West 11.3 km/h 29 km/h 57 % 0 mm 364 W/m2
18:33 18.4 °C 9.4 °C 1011.4 hPa West 11.3 km/h 20.9 km/h 56 % 0 mm 339 W/m2
18:38 18.5 °C 9.6 °C 1011.4 hPa West 11.3 km/h 20.9 km/h 56 % 0 mm 323 W/m2
18:43 18.5 °C 9.3 °C 1011.4 hPa West 11.3 km/h 20.9 km/h 55 % 0 mm 306 W/m2
18:48 18.3 °C 9.1 °C 1011.4 hPa West 12.9 km/h 20.9 km/h 55 % 0 mm 292 W/m2
18:53 18.1 °C 8.9 °C 1011.4 hPa WSW 11.3 km/h 20.9 km/h 55 % 0 mm 279 W/m2
18:58 18.1 °C 8.7 °C 1011.4 hPa WSW 12.9 km/h 22.5 km/h 54 % 0 mm 264 W/m2
19:03 18.1 °C 8.1 °C 1011.4 hPa West 12.9 km/h 22.5 km/h 52 % 0 mm 250 W/m2
19:08 17.9 °C 7.9 °C 1011.4 hPa WSW 12.9 km/h 25.7 km/h 52 % 0 mm 236 W/m2
19:13 17.7 °C 8 °C 1011.4 hPa SW 14.5 km/h 29 km/h 53 % 0 mm 225 W/m2
19:18 17.7 °C 8.6 °C 1011.4 hPa WSW 12.9 km/h 29 km/h 55 % 0 mm 209 W/m2
19:23 17.8 °C 8.6 °C 1011.4 hPa WSW 11.3 km/h 24.1 km/h 55 % 0 mm 197 W/m2
19:28 17.8 °C 8.9 °C 1011.4 hPa West 12.9 km/h 22.5 km/h 56 % 0 mm 179 W/m2
19:33 17.6 °C 9 °C 1011.4 hPa West 14.5 km/h 22.5 km/h 57 % 0 mm 172 W/m2
19:38 17.5 °C 9.2 °C 1011.4 hPa WSW 12.9 km/h 22.5 km/h 58 % 0 mm 56 W/m2
19:43 17.3 °C 8.9 °C 1011.4 hPa WSW 9.7 km/h 17.7 km/h 58 % 0 mm 35 W/m2
19:48 17.1 °C 8.8 °C 1011.4 hPa WSW 9.7 km/h 20.9 km/h 58 % 0 mm 65 W/m2
19:53 17 °C 8.9 °C 1011.4 hPa West 8 km/h 20.9 km/h 59 % 0 mm 102 W/m2
19:58 17 °C 9.2 °C 1011.7 hPa WSW 6.4 km/h 14.5 km/h 60 % 0 mm 142 W/m2
20:03 17 °C 9.2 °C 1011.4 hPa WSW 6.4 km/h 16.1 km/h 60 % 0 mm 102 W/m2
20:08 17 °C 9.4 °C 1011.7 hPa West 8 km/h 16.1 km/h 61 % 0 mm 53 W/m2
20:14 16.9 °C 9.3 °C 1011.7 hPa West 6.4 km/h 14.5 km/h 61 % 0 mm 49 W/m2
20:19 16.9 °C 9.3 °C 1011.7 hPa West 6.4 km/h 14.5 km/h 61 % 0 mm 54 W/m2
20:24 16.8 °C 9.5 °C 1011.7 hPa West 4.8 km/h 14.5 km/h 62 % 0 mm 51 W/m2
20:29 16.8 °C 9.7 °C 1011.7 hPa WNW 4.8 km/h 11.3 km/h 63 % 0 mm 37 W/m2
20:34 16.7 °C 9.6 °C 1011.7 hPa WNW 6.4 km/h 16.1 km/h 63 % 0 mm 26 W/m2
20:39 16.5 °C 9.7 °C 1011.7 hPa WNW 6.4 km/h 16.1 km/h 64 % 0 mm 28 W/m2
20:44 16.3 °C 9.7 °C 1012.1 hPa WNW 6.4 km/h 14.5 km/h 65 % 0 mm 40 W/m2
20:49 16.2 °C 9.6 °C 1012.1 hPa WNW 6.4 km/h 14.5 km/h 65 % 0 mm 40 W/m2
20:54 16 °C 9.7 °C 1012.1 hPa WNW 8 km/h 14.5 km/h 66 % 0 mm 40 W/m2
20:59 15.9 °C 9.8 °C 1012.1 hPa WNW 8 km/h 14.5 km/h 67 % 0 mm 35 W/m2
21:04 15.7 °C 9.6 °C 1012.1 hPa WNW 6.4 km/h 12.9 km/h 67 % 0 mm 28 W/m2
21:09 15.6 °C 9.7 °C 1012.1 hPa NW 6.4 km/h 14.5 km/h 68 % 0 mm 23 W/m2
21:14 15.4 °C 9.5 °C 1012.1 hPa NW 6.4 km/h 14.5 km/h 68 % 0 mm 18 W/m2
21:19 15.3 °C 9.7 °C 1012.1 hPa NW 4.8 km/h 12.9 km/h 69 % 0 mm 14 W/m2
21:24 15.2 °C 9.6 °C 1012.1 hPa NW 4.8 km/h 14.5 km/h 69 % 0 mm 12 W/m2
21:29 15.2 °C 9.8 °C 1012.1 hPa WNW 4.8 km/h 14.5 km/h 70 % 0 mm 11 W/m2
21:34 15 °C 9.6 °C 1012.4 hPa NW 4.8 km/h 12.9 km/h 70 % 0 mm 7 W/m2
21:39 14.9 °C 9.5 °C 1012.4 hPa WNW 4.8 km/h 12.9 km/h 70 % 0 mm 0 W/m2
21:44 14.8 °C 9.4 °C 1012.4 hPa WNW 3.2 km/h 9.7 km/h 70 % 0 mm 0 W/m2
21:49 14.8 °C 9.6 °C 1012.4 hPa WNW 1.6 km/h 6.4 km/h 71 % 0 mm 0 W/m2
21:54 14.7 °C 9.7 °C 1012.4 hPa WNW 1.6 km/h 3.2 km/h 72 % 0 mm 0 W/m2
21:59 14.6 °C 9.8 °C 1012.4 hPa WNW 1.6 km/h 6.4 km/h 73 % 0 mm 0 W/m2
22:04 14.4 °C 9.6 °C 1012.4 hPa WNW 1.6 km/h 6.4 km/h 73 % 0 mm 0 W/m2
22:09 14.3 °C 9.5 °C 1012.4 hPa WNW 1.6 km/h 4.8 km/h 73 % 0 mm 0 W/m2
22:14 14.2 °C 9.6 °C 1012.4 hPa WNW 1.6 km/h 6.4 km/h 74 % 0 mm 0 W/m2
22:19 14 °C 9.4 °C 1012.4 hPa WNW 1.6 km/h 6.4 km/h 74 % 0 mm 0 W/m2
22:24 13.8 °C 9.4 °C 1012.4 hPa Calm   6.4 km/h 75 % 0 mm 0 W/m2
22:29 13.8 °C 9.4 °C 1012.4 hPa Calm   1.6 km/h 75 % 0 mm 0 W/m2
22:34 13.7 °C 9.3 °C 1012.4 hPa Calm   1.6 km/h 75 % 0 mm 0 W/m2
22:39 13.6 °C 9.2 °C 1012.4 hPa Calm   1.6 km/h 75 % 0 mm 0 W/m2
22:44 13.4 °C 8.8 °C 1012.4 hPa Calm   1.6 km/h 74 % 0 mm 0 W/m2
22:49 13.2 °C 8.7 °C 1012.4 hPa Calm   1.6 km/h 74 % 0 mm 0 W/m2
22:54 13 °C 8.4 °C 1012.4 hPa Calm   1.6 km/h 74 % 0 mm 0 W/m2
22:59 12.8 °C 8.3 °C 1012.8 hPa Calm     74 % 0 mm 0 W/m2
23:04 12.6 °C 8.3 °C 1012.4 hPa Calm   3.2 km/h 75 % 0 mm 0 W/m2
23:09 12.4 °C 8.1 °C 1012.8 hPa Calm   3.2 km/h 75 % 0 mm 0 W/m2
23:14 12.3 °C 8 °C 1012.8 hPa Calm   3.2 km/h 75 % 0 mm 0 W/m2
23:19 12.2 °C 7.9 °C 1012.8 hPa WNW 1.6 km/h 8 km/h 75 % 0 mm 0 W/m2
23:25 12.1 °C 7.8 °C 1012.8 hPa West 3.2 km/h 9.7 km/h 75 % 0 mm 0 W/m2
23:30 12 °C 7.7 °C 1012.8 hPa West 4.8 km/h 9.7 km/h 75 % 0 mm 0 W/m2
23:35 11.9 °C 7.6 °C 1012.8 hPa West 3.2 km/h 9.7 km/h 75 % 0 mm 0 W/m2
23:40 11.8 °C 7.5 °C 1012.8 hPa West 3.2 km/h 16.1 km/h 75 % 0 mm 0 W/m2
23:45 11.7 °C 7.4 °C 1012.4 hPa West 4.8 km/h 16.1 km/h 75 % 0 mm 0 W/m2
23:50 11.7 °C 7.6 °C 1012.8 hPa West 6.4 km/h 12.9 km/h 76 % 0 mm 0 W/m2
23:55 11.6 °C 7.5 °C 1012.4 hPa West 6.4 km/h 12.9 km/h 76 % 0 mm 0 W/m2
Delerius-Weather
Compliments of Weather Underground - 2.25 mb

Data updates at regular intervals.